F/V Cyriaque — FHDS — position and weather

sailwx.info

Track history (hours):
 
Tides and Currents Weather Stations Pressure Air Temp Water Temp Dewpoint Dewpoint Depression Visibility Wind Speed Wind Dir Waves Ship Positions

F/V Cyriaque

Last reported at 2017-Nov-23 09:30 UTC. Time now 2017-Nov-23 09:31 UTC.
Position N 44°40' W 001°25'.

Length 20 m; draft 3.5 m.

Type: Fishing. MMSI: 228235000.

Date/timePositionNaut miles runAvg speedWind from/ knotsBaromVisibWave heightAir tempDewpointWater temp
2017-Nov-23 09:30N 44°40' W 001°25'2 3.2
2017-Nov-23 09:00N 44°42' W 001°25'2 3.2
2017-Nov-23 08:30N 44°43' W 001°25'2 3.2
2017-Nov-23 08:00N 44°45' W 001°25'2 3.3
2017-Nov-23 07:30N 44°46' W 001°25'2 3.3
2017-Nov-23 07:00N 44°48' W 001°25'2 3.6
2017-Nov-23 06:30N 44°49' W 001°27'1 2.6
2017-Nov-23 06:00N 44°50' W 001°27'2 3.1
2017-Nov-23 05:30N 44°52' W 001°27'2 3.0
2017-Nov-23 04:59N 44°54' W 001°27'4 2.9
2017-Nov-23 03:42N 44°57' W 001°27'3 2.7
2017-Nov-23 02:36N 45°00' W 001°27'0 2.6
2017-Nov-23 02:30N 45°01' W 001°27'1 2.6
2017-Nov-23 02:00N 45°02' W 001°27'1 2.4
2017-Nov-23 01:30N 45°02' W 001°29'1 2.7
2017-Nov-23 01:00N 45°01' W 001°29'1 3.0
2017-Nov-23 00:30N 44°59' W 001°29'3 3.0
2017-Nov-22 23:28N 44°56' W 001°29'2 3.0
2017-Nov-22 22:57N 44°54' W 001°29'1 3.0
2017-Nov-22 22:30N 44°53' W 001°29'2 3.3
2017-Nov-22 22:00N 44°51' W 001°29'2 3.6
2017-Nov-22 21:30N 44°51' W 001°26'1 1.1
2017-Nov-22 21:00N 44°51' W 001°26'1 2.7
2017-Nov-22 20:30N 44°49' W 001°26'1 2.8
2017-Nov-22 20:00N 44°48' W 001°26'1 2.8
2017-Nov-22 19:30N 44°46' W 001°26'  
2017-Nov-20 00:30N 43°26' W 001°40'4 7.3
2017-Nov-20 00:00N 43°29' W 001°39'4 7.4
2017-Nov-19 23:30N 43°33' W 001°38'4 7.1
2017-Nov-19 23:00N 43°36' W 001°37'3 7.0
2017-Nov-19 22:30N 43°40' W 001°36'3 6.7
2017-Nov-19 22:00N 43°43' W 001°35'3 6.9
2017-Nov-19 21:30N 43°46' W 001°34'4 7.3
2017-Nov-19 21:00N 43°50' W 001°33'4 7.2
2017-Nov-19 20:28N 43°54' W 001°31'5 7.3
2017-Nov-19 19:43N 43°59' W 001°29'2 7.1
2017-Nov-19 19:30N 44°00' W 001°29'4 7.3
2017-Nov-19 19:00N 44°04' W 001°28'4 5.2
2017-Nov-19 18:15N 44°08' W 001°27'1 3.1
2017-Nov-19 18:00N 44°09' W 001°26'4 3.0
2017-Nov-19 16:45N 44°12' W 001°26'1 2.9
2017-Nov-19 16:30N 44°13' W 001°25'1 2.9
2017-Nov-19 16:00N 44°14' W 001°25'2 3.0
2017-Nov-19 15:30N 44°16' W 001°25'2 4.5
2017-Nov-19 15:00N 44°18' W 001°25'2 3.3
2017-Nov-19 14:30N 44°20' W 001°24'2 3.3
2017-Nov-19 14:00N 44°21' W 001°23'2 3.2
2017-Nov-19 13:30N 44°23' W 001°24'2 3.2
2017-Nov-19 13:00N 44°24' W 001°25'1 3.0
2017-Nov-19 12:30N 44°22' W 001°26'2 3.4
2017-Nov-19 12:00N 44°21' W 001°26'2 3.3
2017-Nov-19 11:30N 44°19' W 001°27'2 3.3
2017-Nov-19 11:00N 44°17' W 001°27'2 3.2
2017-Nov-19 10:30N 44°16' W 001°27'0 0.1
2017-Nov-19 10:00N 44°16' W 001°27'2 3.4
2017-Nov-19 09:30N 44°18' W 001°27'2 3.4
2017-Nov-19 09:00N 44°19' W 001°26'2 3.3
2017-Nov-19 08:30N 44°21' W 001°26'2 3.3
2017-Nov-19 08:00N 44°22' W 001°26'2 3.2
2017-Nov-19 07:30N 44°24' W 001°26'2 3.4
2017-Nov-19 07:00N 44°26' W 001°25'2 3.5
2017-Nov-19 06:30N 44°27' W 001°25'2 3.5
2017-Nov-19 06:00N 44°29' W 001°25'2 4.6
2017-Nov-19 05:30N 44°30' W 001°22'1 2.4
2017-Nov-19 05:00N 44°29' W 001°22'1 2.8
2017-Nov-19 04:30N 44°28' W 001°22'1 2.9
2017-Nov-19 04:00N 44°26' W 001°23'1 2.9
2017-Nov-19 03:30N 44°25' W 001°23'1 2.9
2017-Nov-19 03:00N 44°23' W 001°23'1 2.9
2017-Nov-19 02:30N 44°22' W 001°23'2 2.8
2017-Nov-19 01:57N 44°20' W 001°24'3 2.8
2017-Nov-19 00:57N 44°18' W 001°25'4 1.2
2017-Nov-18 21:31N 44°22' W 001°23'1 2.9
2017-Nov-18 21:11N 44°23' W 001°23'1 2.8
2017-Nov-18 20:50N 44°24' W 001°23'2 2.9
2017-Nov-18 19:58N 44°26' W 001°23'1 3.0
2017-Nov-18 19:30N 44°28' W 001°22'2 3.0
2017-Nov-18 18:56N 44°29' W 001°22'2 3.3
2017-Nov-18 18:24N 44°31' W 001°22'0 0.4
2017-Nov-18 18:00N 44°31' W 001°22'2 3.3
2017-Nov-18 17:30N 44°30' W 001°22'2 3.1
2017-Nov-18 17:00N 44°28' W 001°22'2 3.2
2017-Nov-18 16:30N 44°26' W 001°23'2 3.2
2017-Nov-18 16:00N 44°25' W 001°23'2 3.3
2017-Nov-18 15:30N 44°23' W 001°23'2 3.2
2017-Nov-18 15:00N 44°22' W 001°23'2 3.2
2017-Nov-18 14:30N 44°20' W 001°24'2 3.3
2017-Nov-18 14:00N 44°19' W 001°26'1 2.7
2017-Nov-18 13:30N 44°21' W 001°26'2 3.4
2017-Nov-18 13:00N 44°22' W 001°26'2 3.2
2017-Nov-18 12:30N 44°24' W 001°26'2 3.3
2017-Nov-18 12:00N 44°26' W 001°25'2 3.3
2017-Nov-18 11:30N 44°27' W 001°25'2 3.3
2017-Nov-18 11:00N 44°29' W 001°25'2 3.2
2017-Nov-18 10:30N 44°31' W 001°25'2 3.2
2017-Nov-18 10:00N 44°32' W 001°25'2 3.4
2017-Nov-18 09:27N 44°34' W 001°25'4 8.2
2017-Nov-18 09:00N 44°37' W 001°23'1 1.2
2017-Nov-18 08:30N 44°38' W 001°22'2 3.3
2017-Nov-18 08:00N 44°36' W 001°22'2 3.2
2017-Nov-18 07:30N 44°34' W 001°22'2 3.2
2017-Nov-18 07:00N 44°33' W 001°22'2 3.2
2017-Nov-18 06:30N 44°31' W 001°22'2 3.2
2017-Nov-18 06:00N 44°30' W 001°22'2 3.1
2017-Nov-18 05:30N 44°28' W 001°22'2 3.1
2017-Nov-18 05:00N 44°26' W 001°23'1 1.2
2017-Nov-18 04:17N 44°26' W 001°23'1 2.3
2017-Nov-18 04:00N 44°26' W 001°23'1 2.2
2017-Nov-18 03:29N 44°27' W 001°22'1 3.0
2017-Nov-18 03:00N 44°29' W 001°22'2 3.0
2017-Nov-18 02:12N 44°31' W 001°22'1 3.1
2017-Nov-18 02:00N 44°32' W 001°22'1 3.0
2017-Nov-18 01:30N 44°33' W 001°22'1 2.9
2017-Nov-18 01:00N 44°35' W 001°22'1 2.9
2017-Nov-18 00:30N 44°36' W 001°22'1 2.9
2017-Nov-18 00:00N 44°38' W 001°22'1 2.9
2017-Nov-17 23:30N 44°39' W 001°22'2 3.0
2017-Nov-17 23:00N 44°41' W 001°23'0 0.9
2017-Nov-17 22:30N 44°40' W 001°23'1 3.0
2017-Nov-17 22:00N 44°39' W 001°22'2 3.0
2017-Nov-17 21:30N 44°37' W 001°22'1 3.0
2017-Nov-17 21:00N 44°36' W 001°22'1 3.0
2017-Nov-17 20:30N 44°34' W 001°22'1 2.8
2017-Nov-17 20:00N 44°33' W 001°22'1 2.9
2017-Nov-17 19:30N 44°31' W 001°22'1 2.9
2017-Nov-17 19:00N 44°30' W 001°22'1 2.9
2017-Nov-17 18:30N 44°28' W 001°22'1 2.2
2017-Nov-17 18:00N 44°27' W 001°22'1 2.6
2017-Nov-17 17:30N 44°29' W 001°22'1 3.0
2017-Nov-17 17:00N 44°30' W 001°22'2 3.0
2017-Nov-17 16:30N 44°32' W 001°22'2 3.0
2017-Nov-17 16:00N 44°33' W 001°22'2 3.0
2017-Nov-17 15:30N 44°35' W 001°22'2 3.0
2017-Nov-17 15:00N 44°36' W 001°22'2 3.0
2017-Nov-17 14:30N 44°38' W 001°22'1 2.4
2017-Nov-17 14:00N 44°38' W 001°24'2 3.1
2017-Nov-17 13:31N 44°38' W 001°26'1 1.3
2017-Nov-17 13:00N 44°38' W 001°26'2 3.2
2017-Nov-17 12:30N 44°40' W 001°26'2 3.1
2017-Nov-17 12:00N 44°41' W 001°26'2 3.2
2017-Nov-17 11:30N 44°43' W 001°26'2 3.2
2017-Nov-17 11:00N 44°44' W 001°26'2 3.1
2017-Nov-17 10:30N 44°46' W 001°26'1 3.0
2017-Nov-17 10:00N 44°48' W 001°26'1 3.0
2017-Nov-17 09:30N 44°49' W 001°26'1 2.9
2017-Nov-17 09:00N 44°50' W 001°26'1 1.1
2017-Nov-17 08:30N 44°51' W 001°26'2 3.4
2017-Nov-17 08:00N 44°49' W 001°25'2 3.5
2017-Nov-17 07:30N 44°47' W 001°25'2 3.5
2017-Nov-17 07:00N 44°46' W 001°25'2 3.4
2017-Nov-17 06:30N 44°44' W 001°25'2 3.4
2017-Nov-17 06:00N 44°42' W 001°25'2 3.4
2017-Nov-17 05:30N 44°41' W 001°25'2 3.4
2017-Nov-17 05:00N 44°39' W 001°25'1 2.2
2017-Nov-17 04:30N 44°38' W 001°26'1 2.7
2017-Nov-17 04:00N 44°39' W 001°26'2 3.2
2017-Nov-17 03:30N 44°41' W 001°26'2 3.3
2017-Nov-17 03:00N 44°43' W 001°26'2 3.2
2017-Nov-17 02:30N 44°44' W 001°26'2 3.2
2017-Nov-17 02:00N 44°46' W 001°26'2 3.1
2017-Nov-17 01:30N 44°47' W 001°26'2 3.1
2017-Nov-17 01:00N 44°49' W 001°26'2 3.1
2017-Nov-17 00:30N 44°51' W 001°26'2 3.1
2017-Nov-17 00:00N 44°52' W 001°26'2 3.1
2017-Nov-16 23:30N 44°54' W 001°26'1 1.8
2017-Nov-16 22:59N 44°53' W 001°26'1 2.9
2017-Nov-16 22:30N 44°51' W 001°26'1 2.9
2017-Nov-16 22:00N 44°50' W 001°26'1 3.0
2017-Nov-16 21:30N 44°48' W 001°26'1 3.0
2017-Nov-16 21:00N 44°47' W 001°26'1 3.0
2017-Nov-16 20:30N 44°45' W 001°26'1 3.0
2017-Nov-16 20:00N 44°44' W 001°26'2 3.0
2017-Nov-16 19:30N 44°42' W 001°26'2 3.0
2017-Nov-16 19:00N 44°41' W 001°26'1 3.0
2017-Nov-16 18:30N 44°40' W 001°25'1 2.7
2017-Nov-16 18:00N 44°41' W 001°25'2 3.4
2017-Nov-16 17:31N 44°43' W 001°25'2 3.4
2017-Nov-16 17:00N 44°44' W 001°25'2 3.4
2017-Nov-16 16:30N 44°46' W 001°25'2 3.5
2017-Nov-16 16:00N 44°48' W 001°25'2 3.7
2017-Nov-16 15:30N 44°50' W 001°25'1 1.5
2017-Nov-16 15:00N 44°49' W 001°25'2 3.1
2017-Nov-16 14:30N 44°48' W 001°25'2 3.3
2017-Nov-16 14:00N 44°46' W 001°25'2 3.3
2017-Nov-16 13:30N 44°44' W 001°25'2 3.3
2017-Nov-16 13:01N 44°43' W 001°25'2 3.4
2017-Nov-16 12:30N 44°41' W 001°24'1 2.0
2017-Nov-16 12:01N 44°42' W 001°25'2 3.7
2017-Nov-16 11:30N 44°44' W 001°25'1 2.8
2017-Nov-16 11:01N 44°45' W 001°25'2 3.2
2017-Nov-16 10:30N 44°47' W 001°25'2 3.2
2017-Nov-16 10:00N 44°48' W 001°25'2 3.1
2017-Nov-16 09:30N 44°50' W 001°25'0 1.0
2017-Nov-16 09:00N 44°49' W 001°25'2 3.5
2017-Nov-16 08:30N 44°48' W 001°25'2 3.5
2017-Nov-16 08:00N 44°46' W 001°25'2 3.5
2017-Nov-16 07:30N 44°44' W 001°25'2 3.5
2017-Nov-16 07:00N 44°42' W 001°25'2 3.4
2017-Nov-16 06:30N 44°41' W 001°25'2 3.2
2017-Nov-16 06:00N 44°39' W 001°25'4 7.9
2017-Nov-16 05:30N 44°36' W 001°21'4 8.5
2017-Nov-16 05:00N 44°34' W 001°16'510.8
2017-Nov-16 04:30N 44°39' W 001°13'3 6.2
2017-Nov-16 04:00N 44°39' W 001°09'0 0.0
2017-Nov-16 03:30N 44°39' W 001°09'0 0.0
2017-Nov-16 03:00N 44°39' W 001°09'0 0.0
2017-Nov-16 02:30N 44°39' W 001°09'0 0.1
2017-Nov-16 02:00N 44°39' W 001°09'2 3.7
2017-Nov-16 01:30N 44°40' W 001°11'5 9.1
2017-Nov-16 01:00N 44°36' W 001°14'4 7.8
2017-Nov-16 00:30N 44°34' W 001°19'3 5.1
2017-Nov-16 00:00N 44°36' W 001°21'2 4.1
2017-Nov-15 23:30N 44°38' W 001°22'3 5.0
2017-Nov-15 23:00N 44°41' W 001°22'3 5.3
2017-Nov-15 22:30N 44°43' W 001°23'3 5.2
2017-Nov-15 22:00N 44°46' W 001°25'0 0.8
2017-Nov-15 21:30N 44°46' W 001°25'2 3.0
2017-Nov-15 21:00N 44°44' W 001°25'2 3.1
2017-Nov-15 20:30N 44°43' W 001°25'2 3.1
2017-Nov-15 20:00N 44°41' W 001°25'2 3.1
2017-Nov-15 19:30N 44°40' W 001°25'2 3.1
2017-Nov-15 19:00N 44°38' W 001°26'2 3.2
2017-Nov-15 18:30N 44°37' W 001°26'2 3.1
2017-Nov-15 18:00N 44°35' W 001°26'1 2.0
2017-Nov-15 17:30N 44°35' W 001°25'1 2.8
2017-Nov-15 17:00N 44°36' W 001°25'2 3.2
2017-Nov-15 16:30N 44°38' W 001°25'1 2.4
2017-Nov-15 16:00N 44°39' W 001°25'2 3.1
2017-Nov-15 15:30N 44°41' W 001°25'2 3.1
2017-Nov-15 15:00N 44°42' W 001°25'2 3.1
2017-Nov-15 14:30N 44°44' W 001°25'2 3.1
2017-Nov-15 14:00N 44°45' W 001°25'2 3.2
2017-Nov-15 13:30N 44°47' W 001°25'2 3.1
2017-Nov-15 13:00N 44°48' W 001°25'2 3.2
2017-Nov-15 12:30N 44°50' W 001°25'0 0.2
2017-Nov-15 11:58N 44°50' W 001°25'1 2.9
2017-Nov-15 11:30N 44°49' W 001°25'1 2.9
2017-Nov-15 11:00N 44°47' W 001°25'1 3.0
2017-Nov-15 10:30N 44°46' W 001°25'2 3.0
2017-Nov-15 10:00N 44°44' W 001°25'2 3.0
2017-Nov-15 09:30N 44°43' W 001°25'2 3.0
2017-Nov-15 09:00N 44°41' W 001°25'2 3.1
2017-Nov-15 08:30N 44°40' W 001°25'0 0.9
2017-Nov-15 08:00N 44°40' W 001°25'1 2.8
2017-Nov-15 07:30N 44°42' W 001°25'1 2.8
2017-Nov-15 07:00N 44°43' W 001°25'1 2.9
2017-Nov-15 06:30N 44°44' W 001°25'1 2.9
2017-Nov-15 06:00N 44°46' W 001°25'1 2.9
2017-Nov-15 05:30N 44°47' W 001°25'1 3.0
2017-Nov-15 05:00N 44°49' W 001°25'1 3.0
2017-Nov-15 04:30N 44°50' W 001°26'1 1.4
2017-Nov-15 03:39N 44°51' W 001°26'1 2.7
2017-Nov-15 03:23N 44°51' W 001°26'1 2.7
2017-Nov-15 03:00N 44°50' W 001°26'1 2.7
2017-Nov-15 02:30N 44°48' W 001°26'1 2.7
2017-Nov-15 02:00N 44°47' W 001°26'1 2.8
2017-Nov-15 01:30N 44°46' W 001°26'1 2.8
2017-Nov-15 01:00N 44°44' W 001°26'1 2.8
2017-Nov-15 00:30N 44°43' W 001°26'1 2.9
2017-Nov-15 00:00N 44°41' W 001°26'1 2.8
2017-Nov-14 23:30N 44°40' W 001°26'1 2.8
2017-Nov-14 23:00N 44°39' W 001°26'2 4.0
2017-Nov-14 22:30N 44°39' W 001°29'1 1.6
2017-Nov-14 22:00N 44°40' W 001°29'1 3.0
2017-Nov-14 21:30N 44°41' W 001°29'1 2.8
2017-Nov-14 21:00N 44°43' W 001°29'1 2.7
2017-Nov-14 20:30N 44°44' W 001°29'1 2.7
2017-Nov-14 20:00N 44°45' W 001°29'1 2.7
2017-Nov-14 19:30N 44°47' W 001°29'1 2.7
2017-Nov-14 19:00N 44°48' W 001°29'1 2.7
2017-Nov-14 18:30N 44°49' W 001°29'2 2.4
2017-Nov-14 17:51N 44°50' W 001°27'2 5.2
2017-Nov-14 17:30N 44°50' W 001°25'1 2.6
2017-Nov-14 17:00N 44°48' W 001°25'1 2.9
2017-Nov-14 16:30N 44°47' W 001°25'1 2.9
2017-Nov-14 16:00N 44°45' W 001°25'1 2.9
2017-Nov-14 15:30N 44°44' W 001°25'1 2.9
2017-Nov-14 15:00N 44°43' W 001°25'1 2.9
2017-Nov-14 14:30N 44°41' W 001°25'1 2.6
2017-Nov-14 14:00N 44°40' W 001°25'3 6.9
2017-Nov-14 13:30N 44°36' W 001°25'4 8.2
2017-Nov-14 13:00N 44°32' W 001°25'2 4.2
2017-Nov-14 12:28N 44°30' W 001°25'1 3.2
2017-Nov-14 12:00N 44°29' W 001°25'3 3.2
2017-Nov-14 10:58N 44°25' W 001°25'2 3.2
2017-Nov-14 10:26N 44°24' W 001°26'1 3.2
2017-Nov-14 09:59N 44°22' W 001°26'2 3.2
2017-Nov-14 09:29N 44°21' W 001°26'8 1.2
2017-Nov-14 03:04N 44°28' W 001°25'0 4.0
2017-Nov-14 03:00N 44°28' W 001°26'4 8.0
2017-Nov-14 02:30N 44°28' W 001°31'4 2.6
2017-Nov-14 01:01N 44°30' W 001°35'0 3.7
2017-Nov-14 00:58N 44°30' W 001°35'  
Track history (hours):
 
Tides and Currents Weather Stations Pressure Air Temp Water Temp Dewpoint Dewpoint Depression Visibility Wind Speed Wind Dir Waves Ship Positions

F/V Cyriaque

Last reported at 2017-Nov-23 09:30 UTC. Time now 2017-Nov-23 09:31 UTC.
Position N 44°40' W 001°25'.

Length 20 m; draft 3.5 m.

Type: Fishing. MMSI: 228235000.

Date/timePositionNaut miles runAvg speedWind from/ knotsBaromVisibWave heightAir tempDewpointWater temp
2017-Nov-23 09:30N 44°40' W 001°25'2 3.2
2017-Nov-23 09:00N 44°42' W 001°25'2 3.2
2017-Nov-23 08:30N 44°43' W 001°25'2 3.2
2017-Nov-23 08:00N 44°45' W 001°25'2 3.3
2017-Nov-23 07:30N 44°46' W 001°25'2 3.3
2017-Nov-23 07:00N 44°48' W 001°25'2 3.6
2017-Nov-23 06:30N 44°49' W 001°27'1 2.6
2017-Nov-23 06:00N 44°50' W 001°27'2 3.1
2017-Nov-23 05:30N 44°52' W 001°27'2 3.0
2017-Nov-23 04:59N 44°54' W 001°27'4 2.9
2017-Nov-23 03:42N 44°57' W 001°27'3 2.7
2017-Nov-23 02:36N 45°00' W 001°27'0 2.6
2017-Nov-23 02:30N 45°01' W 001°27'1 2.6
2017-Nov-23 02:00N 45°02' W 001°27'1 2.4
2017-Nov-23 01:30N 45°02' W 001°29'1 2.7
2017-Nov-23 01:00N 45°01' W 001°29'1 3.0
2017-Nov-23 00:30N 44°59' W 001°29'3 3.0
2017-Nov-22 23:28N 44°56' W 001°29'2 3.0
2017-Nov-22 22:57N 44°54' W 001°29'1 3.0
2017-Nov-22 22:30N 44°53' W 001°29'2 3.3
2017-Nov-22 22:00N 44°51' W 001°29'2 3.6
2017-Nov-22 21:30N 44°51' W 001°26'1 1.1
2017-Nov-22 21:00N 44°51' W 001°26'1 2.7
2017-Nov-22 20:30N 44°49' W 001°26'1 2.8
2017-Nov-22 20:00N 44°48' W 001°26'1 2.8
2017-Nov-22 19:30N 44°46' W 001°26'  
2017-Nov-20 00:30N 43°26' W 001°40'4 7.3
2017-Nov-20 00:00N 43°29' W 001°39'4 7.4
2017-Nov-19 23:30N 43°33' W 001°38'4 7.1
2017-Nov-19 23:00N 43°36' W 001°37'3 7.0
2017-Nov-19 22:30N 43°40' W 001°36'3 6.7
2017-Nov-19 22:00N 43°43' W 001°35'3 6.9
2017-Nov-19 21:30N 43°46' W 001°34'4 7.3
2017-Nov-19 21:00N 43°50' W 001°33'4 7.2
2017-Nov-19 20:28N 43°54' W 001°31'5 7.3
2017-Nov-19 19:43N 43°59' W 001°29'2 7.1
2017-Nov-19 19:30N 44°00' W 001°29'4 7.3
2017-Nov-19 19:00N 44°04' W 001°28'4 5.2
2017-Nov-19 18:15N 44°08' W 001°27'1 3.1
2017-Nov-19 18:00N 44°09' W 001°26'4 3.0
2017-Nov-19 16:45N 44°12' W 001°26'1 2.9
2017-Nov-19 16:30N 44°13' W 001°25'1 2.9
2017-Nov-19 16:00N 44°14' W 001°25'2 3.0
2017-Nov-19 15:30N 44°16' W 001°25'2 4.5
2017-Nov-19 15:00N 44°18' W 001°25'2 3.3
2017-Nov-19 14:30N 44°20' W 001°24'2 3.3
2017-Nov-19 14:00N 44°21' W 001°23'2 3.2
2017-Nov-19 13:30N 44°23' W 001°24'2 3.2
2017-Nov-19 13:00N 44°24' W 001°25'1 3.0
2017-Nov-19 12:30N 44°22' W 001°26'2 3.4
2017-Nov-19 12:00N 44°21' W 001°26'2 3.3
2017-Nov-19 11:30N 44°19' W 001°27'2 3.3
2017-Nov-19 11:00N 44°17' W 001°27'2 3.2
2017-Nov-19 10:30N 44°16' W 001°27'0 0.1
2017-Nov-19 10:00N 44°16' W 001°27'2 3.4
2017-Nov-19 09:30N 44°18' W 001°27'2 3.4
2017-Nov-19 09:00N 44°19' W 001°26'2 3.3
2017-Nov-19 08:30N 44°21' W 001°26'2 3.3
2017-Nov-19 08:00N 44°22' W 001°26'2 3.2
2017-Nov-19 07:30N 44°24' W 001°26'2 3.4
2017-Nov-19 07:00N 44°26' W 001°25'2 3.5
2017-Nov-19 06:30N 44°27' W 001°25'2 3.5
2017-Nov-19 06:00N 44°29' W 001°25'2 4.6
2017-Nov-19 05:30N 44°30' W 001°22'1 2.4
2017-Nov-19 05:00N 44°29' W 001°22'1 2.8
2017-Nov-19 04:30N 44°28' W 001°22'1 2.9
2017-Nov-19 04:00N 44°26' W 001°23'1 2.9
2017-Nov-19 03:30N 44°25' W 001°23'1 2.9
2017-Nov-19 03:00N 44°23' W 001°23'1 2.9
2017-Nov-19 02:30N 44°22' W 001°23'2 2.8
2017-Nov-19 01:57N 44°20' W 001°24'3 2.8
2017-Nov-19 00:57N 44°18' W 001°25'4 1.2
2017-Nov-18 21:31N 44°22' W 001°23'1 2.9
2017-Nov-18 21:11N 44°23' W 001°23'1 2.8
2017-Nov-18 20:50N 44°24' W 001°23'2 2.9
2017-Nov-18 19:58N 44°26' W 001°23'1 3.0
2017-Nov-18 19:30N 44°28' W 001°22'2 3.0
2017-Nov-18 18:56N 44°29' W 001°22'2 3.3
2017-Nov-18 18:24N 44°31' W 001°22'0 0.4
2017-Nov-18 18:00N 44°31' W 001°22'2 3.3
2017-Nov-18 17:30N 44°30' W 001°22'2 3.1
2017-Nov-18 17:00N 44°28' W 001°22'2 3.2
2017-Nov-18 16:30N 44°26' W 001°23'2 3.2
2017-Nov-18 16:00N 44°25' W 001°23'2 3.3
2017-Nov-18 15:30N 44°23' W 001°23'2 3.2
2017-Nov-18 15:00N 44°22' W 001°23'2 3.2
2017-Nov-18 14:30N 44°20' W 001°24'2 3.3
2017-Nov-18 14:00N 44°19' W 001°26'1 2.7
2017-Nov-18 13:30N 44°21' W 001°26'2 3.4
2017-Nov-18 13:00N 44°22' W 001°26'2 3.2
2017-Nov-18 12:30N 44°24' W 001°26'2 3.3
2017-Nov-18 12:00N 44°26' W 001°25'2 3.3
2017-Nov-18 11:30N 44°27' W 001°25'2 3.3
2017-Nov-18 11:00N 44°29' W 001°25'2 3.2
2017-Nov-18 10:30N 44°31' W 001°25'2 3.2
2017-Nov-18 10:00N 44°32' W 001°25'2 3.4
2017-Nov-18 09:27N 44°34' W 001°25'4 8.2
2017-Nov-18 09:00N 44°37' W 001°23'1 1.2
2017-Nov-18 08:30N 44°38' W 001°22'2 3.3
2017-Nov-18 08:00N 44°36' W 001°22'2 3.2
2017-Nov-18 07:30N 44°34' W 001°22'2 3.2
2017-Nov-18 07:00N 44°33' W 001°22'2 3.2
2017-Nov-18 06:30N 44°31' W 001°22'2 3.2
2017-Nov-18 06:00N 44°30' W 001°22'2 3.1
2017-Nov-18 05:30N 44°28' W 001°22'2 3.1
2017-Nov-18 05:00N 44°26' W 001°23'1 1.2
2017-Nov-18 04:17N 44°26' W 001°23'1 2.3
2017-Nov-18 04:00N 44°26' W 001°23'1 2.2
2017-Nov-18 03:29N 44°27' W 001°22'1 3.0
2017-Nov-18 03:00N 44°29' W 001°22'2 3.0
2017-Nov-18 02:12N 44°31' W 001°22'1 3.1
2017-Nov-18 02:00N 44°32' W 001°22'1 3.0
2017-Nov-18 01:30N 44°33' W 001°22'1 2.9
2017-Nov-18 01:00N 44°35' W 001°22'1 2.9
2017-Nov-18 00:30N 44°36' W 001°22'1 2.9
2017-Nov-18 00:00N 44°38' W 001°22'1 2.9
2017-Nov-17 23:30N 44°39' W 001°22'2 3.0
2017-Nov-17 23:00N 44°41' W 001°23'0 0.9
2017-Nov-17 22:30N 44°40' W 001°23'1 3.0
2017-Nov-17 22:00N 44°39' W 001°22'2 3.0
2017-Nov-17 21:30N 44°37' W 001°22'1 3.0
2017-Nov-17 21:00N 44°36' W 001°22'1 3.0
2017-Nov-17 20:30N 44°34' W 001°22'1 2.8
2017-Nov-17 20:00N 44°33' W 001°22'1 2.9
2017-Nov-17 19:30N 44°31' W 001°22'1 2.9
2017-Nov-17 19:00N 44°30' W 001°22'1 2.9
2017-Nov-17 18:30N 44°28' W 001°22'1 2.2
2017-Nov-17 18:00N 44°27' W 001°22'1 2.6
2017-Nov-17 17:30N 44°29' W 001°22'1 3.0
2017-Nov-17 17:00N 44°30' W 001°22'2 3.0
2017-Nov-17 16:30N 44°32' W 001°22'2 3.0
2017-Nov-17 16:00N 44°33' W 001°22'2 3.0
2017-Nov-17 15:30N 44°35' W 001°22'2 3.0
2017-Nov-17 15:00N 44°36' W 001°22'2 3.0
2017-Nov-17 14:30N 44°38' W 001°22'1 2.4
2017-Nov-17 14:00N 44°38' W 001°24'2 3.1
2017-Nov-17 13:31N 44°38' W 001°26'1 1.3
2017-Nov-17 13:00N 44°38' W 001°26'2 3.2
2017-Nov-17 12:30N 44°40' W 001°26'2 3.1
2017-Nov-17 12:00N 44°41' W 001°26'2 3.2
2017-Nov-17 11:30N 44°43' W 001°26'2 3.2
2017-Nov-17 11:00N 44°44' W 001°26'2 3.1
2017-Nov-17 10:30N 44°46' W 001°26'1 3.0
2017-Nov-17 10:00N 44°48' W 001°26'1 3.0
2017-Nov-17 09:30N 44°49' W 001°26'1 2.9
2017-Nov-17 09:00N 44°50' W 001°26'1 1.1
2017-Nov-17 08:30N 44°51' W 001°26'2 3.4
2017-Nov-17 08:00N 44°49' W 001°25'2 3.5
2017-Nov-17 07:30N 44°47' W 001°25'2 3.5
2017-Nov-17 07:00N 44°46' W 001°25'2 3.4
2017-Nov-17 06:30N 44°44' W 001°25'2 3.4
2017-Nov-17 06:00N 44°42' W 001°25'2 3.4
2017-Nov-17 05:30N 44°41' W 001°25'2 3.4
2017-Nov-17 05:00N 44°39' W 001°25'1 2.2
2017-Nov-17 04:30N 44°38' W 001°26'1 2.7
2017-Nov-17 04:00N 44°39' W 001°26'2 3.2
2017-Nov-17 03:30N 44°41' W 001°26'2 3.3
2017-Nov-17 03:00N 44°43' W 001°26'2 3.2
2017-Nov-17 02:30N 44°44' W 001°26'2 3.2
2017-Nov-17 02:00N 44°46' W 001°26'2 3.1
2017-Nov-17 01:30N 44°47' W 001°26'2 3.1
2017-Nov-17 01:00N 44°49' W 001°26'2 3.1
2017-Nov-17 00:30N 44°51' W 001°26'2 3.1
2017-Nov-17 00:00N 44°52' W 001°26'2 3.1
2017-Nov-16 23:30N 44°54' W 001°26'1 1.8
2017-Nov-16 22:59N 44°53' W 001°26'1 2.9
2017-Nov-16 22:30N 44°51' W 001°26'1 2.9
2017-Nov-16 22:00N 44°50' W 001°26'1 3.0
2017-Nov-16 21:30N 44°48' W 001°26'1 3.0
2017-Nov-16 21:00N 44°47' W 001°26'1 3.0
2017-Nov-16 20:30N 44°45' W 001°26'1 3.0
2017-Nov-16 20:00N 44°44' W 001°26'2 3.0
2017-Nov-16 19:30N 44°42' W 001°26'2 3.0
2017-Nov-16 19:00N 44°41' W 001°26'1 3.0
2017-Nov-16 18:30N 44°40' W 001°25'1 2.7
2017-Nov-16 18:00N 44°41' W 001°25'2 3.4
2017-Nov-16 17:31N 44°43' W 001°25'2 3.4
2017-Nov-16 17:00N 44°44' W 001°25'2 3.4
2017-Nov-16 16:30N 44°46' W 001°25'2 3.5
2017-Nov-16 16:00N 44°48' W 001°25'2 3.7
2017-Nov-16 15:30N 44°50' W 001°25'1 1.5
2017-Nov-16 15:00N 44°49' W 001°25'2 3.1
2017-Nov-16 14:30N 44°48' W 001°25'2 3.3
2017-Nov-16 14:00N 44°46' W 001°25'2 3.3
2017-Nov-16 13:30N 44°44' W 001°25'2 3.3
2017-Nov-16 13:01N 44°43' W 001°25'2 3.4
2017-Nov-16 12:30N 44°41' W 001°24'1 2.0
2017-Nov-16 12:01N 44°42' W 001°25'2 3.7
2017-Nov-16 11:30N 44°44' W 001°25'1 2.8
2017-Nov-16 11:01N 44°45' W 001°25'2 3.2
2017-Nov-16 10:30N 44°47' W 001°25'2 3.2
2017-Nov-16 10:00N 44°48' W 001°25'2 3.1
2017-Nov-16 09:30N 44°50' W 001°25'0 1.0
2017-Nov-16 09:00N 44°49' W 001°25'2 3.5
2017-Nov-16 08:30N 44°48' W 001°25'2 3.5
2017-Nov-16 08:00N 44°46' W 001°25'2 3.5
2017-Nov-16 07:30N 44°44' W 001°25'2 3.5
2017-Nov-16 07:00N 44°42' W 001°25'2 3.4
2017-Nov-16 06:30N 44°41' W 001°25'2 3.2
2017-Nov-16 06:00N 44°39' W 001°25'4 7.9
2017-Nov-16 05:30N 44°36' W 001°21'4 8.5
2017-Nov-16 05:00N 44°34' W 001°16'510.8
2017-Nov-16 04:30N 44°39' W 001°13'3 6.2
2017-Nov-16 04:00N 44°39' W 001°09'0 0.0
2017-Nov-16 03:30N 44°39' W 001°09'0 0.0
2017-Nov-16 03:00N 44°39' W 001°09'0 0.0
2017-Nov-16 02:30N 44°39' W 001°09'0 0.1
2017-Nov-16 02:00N 44°39' W 001°09'2 3.7
2017-Nov-16 01:30N 44°40' W 001°11'5 9.1
2017-Nov-16 01:00N 44°36' W 001°14'4 7.8
2017-Nov-16 00:30N 44°34' W 001°19'3 5.1
2017-Nov-16 00:00N 44°36' W 001°21'2 4.1
2017-Nov-15 23:30N 44°38' W 001°22'3 5.0
2017-Nov-15 23:00N 44°41' W 001°22'3 5.3
2017-Nov-15 22:30N 44°43' W 001°23'3 5.2
2017-Nov-15 22:00N 44°46' W 001°25'0 0.8
2017-Nov-15 21:30N 44°46' W 001°25'2 3.0
2017-Nov-15 21:00N 44°44' W 001°25'2 3.1
2017-Nov-15 20:30N 44°43' W 001°25'2 3.1
2017-Nov-15 20:00N 44°41' W 001°25'2 3.1
2017-Nov-15 19:30N 44°40' W 001°25'2 3.1
2017-Nov-15 19:00N 44°38' W 001°26'2 3.2
2017-Nov-15 18:30N 44°37' W 001°26'2 3.1
2017-Nov-15 18:00N 44°35' W 001°26'1 2.0
2017-Nov-15 17:30N 44°35' W 001°25'1 2.8
2017-Nov-15 17:00N 44°36' W 001°25'2 3.2
2017-Nov-15 16:30N 44°38' W 001°25'1 2.4
2017-Nov-15 16:00N 44°39' W 001°25'2 3.1
2017-Nov-15 15:30N 44°41' W 001°25'2 3.1
2017-Nov-15 15:00N 44°42' W 001°25'2 3.1
2017-Nov-15 14:30N 44°44' W 001°25'2 3.1
2017-Nov-15 14:00N 44°45' W 001°25'2 3.2
2017-Nov-15 13:30N 44°47' W 001°25'2 3.1
2017-Nov-15 13:00N 44°48' W 001°25'2 3.2
2017-Nov-15 12:30N 44°50' W 001°25'0 0.2
2017-Nov-15 11:58N 44°50' W 001°25'1 2.9
2017-Nov-15 11:30N 44°49' W 001°25'1 2.9
2017-Nov-15 11:00N 44°47' W 001°25'1 3.0
2017-Nov-15 10:30N 44°46' W 001°25'2 3.0
2017-Nov-15 10:00N 44°44' W 001°25'2 3.0
2017-Nov-15 09:30N 44°43' W 001°25'2 3.0
2017-Nov-15 09:00N 44°41' W 001°25'2 3.1
2017-Nov-15 08:30N 44°40' W 001°25'0 0.9
2017-Nov-15 08:00N 44°40' W 001°25'1 2.8
2017-Nov-15 07:30N 44°42' W 001°25'1 2.8
2017-Nov-15 07:00N 44°43' W 001°25'1 2.9
2017-Nov-15 06:30N 44°44' W 001°25'1 2.9
2017-Nov-15 06:00N 44°46' W 001°25'1 2.9
2017-Nov-15 05:30N 44°47' W 001°25'1 3.0
2017-Nov-15 05:00N 44°49' W 001°25'1 3.0
2017-Nov-15 04:30N 44°50' W 001°26'1 1.4
2017-Nov-15 03:39N 44°51' W 001°26'1 2.7
2017-Nov-15 03:23N 44°51' W 001°26'1 2.7
2017-Nov-15 03:00N 44°50' W 001°26'1 2.7
2017-Nov-15 02:30N 44°48' W 001°26'1 2.7
2017-Nov-15 02:00N 44°47' W 001°26'1 2.8
2017-Nov-15 01:30N 44°46' W 001°26'1 2.8
2017-Nov-15 01:00N 44°44' W 001°26'1 2.8
2017-Nov-15 00:30N 44°43' W 001°26'1 2.9
2017-Nov-15 00:00N 44°41' W 001°26'1 2.8
2017-Nov-14 23:30N 44°40' W 001°26'1 2.8
2017-Nov-14 23:00N 44°39' W 001°26'2 4.0
2017-Nov-14 22:30N 44°39' W 001°29'1 1.6
2017-Nov-14 22:00N 44°40' W 001°29'1 3.0
2017-Nov-14 21:30N 44°41' W 001°29'1 2.8
2017-Nov-14 21:00N 44°43' W 001°29'1 2.7
2017-Nov-14 20:30N 44°44' W 001°29'1 2.7
2017-Nov-14 20:00N 44°45' W 001°29'1 2.7
2017-Nov-14 19:30N 44°47' W 001°29'1 2.7
2017-Nov-14 19:00N 44°48' W 001°29'1 2.7
2017-Nov-14 18:30N 44°49' W 001°29'2 2.4
2017-Nov-14 17:51N 44°50' W 001°27'2 5.2
2017-Nov-14 17:30N 44°50' W 001°25'1 2.6
2017-Nov-14 17:00N 44°48' W 001°25'1 2.9
2017-Nov-14 16:30N 44°47' W 001°25'1 2.9
2017-Nov-14 16:00N 44°45' W 001°25'1 2.9
2017-Nov-14 15:30N 44°44' W 001°25'1 2.9
2017-Nov-14 15:00N 44°43' W 001°25'1 2.9
2017-Nov-14 14:30N 44°41' W 001°25'1 2.6
2017-Nov-14 14:00N 44°40' W 001°25'3 6.9
2017-Nov-14 13:30N 44°36' W 001°25'4 8.2
2017-Nov-14 13:00N 44°32' W 001°25'2 4.2
2017-Nov-14 12:28N 44°30' W 001°25'1 3.2
2017-Nov-14 12:00N 44°29' W 001°25'3 3.2
2017-Nov-14 10:58N 44°25' W 001°25'2 3.2
2017-Nov-14 10:26N 44°24' W 001°26'1 3.2
2017-Nov-14 09:59N 44°22' W 001°26'2 3.2
2017-Nov-14 09:29N 44°21' W 001°26'8 1.2
2017-Nov-14 03:04N 44°28' W 001°25'0 4.0
2017-Nov-14 03:00N 44°28' W 001°26'4 8.0
2017-Nov-14 02:30N 44°28' W 001°31'4 2.6
2017-Nov-14 01:01N 44°30' W 001°35'0 3.7
2017-Nov-14 00:58N 44°30' W 001°35'  

Dump ship's entire track history